Time;durP1;ratioP1;P1;durP2;ratioP2;P2;SDS_P1;SDS_P2;PMS_P1;PMS_P2;Temp;Humidity;BMP_temperature;BMP_pressure;BME280_temperature;BME280_humidity;BME280_pressure;Samples;Min_cycle;Max_cycle;Signal;HPM_P1;HPM_P2
2023/09/05 00:03:44;;;;;;;;;;;;;;;20.92;83.66;101491.26;668572;1260;126260;-76
2023/09/05 00:18:48;;;;;;;;;;;;;;;20.77;84.90;101484.90;668064;1263;126234;-76
2023/09/05 00:33:51;;;;;;;;;;;;;;;20.70;85.95;101478.02;670165;1260;125348;-75
2023/09/05 00:48:57;;;;;;;;;;;;;;;20.69;85.63;101478.13;668326;1263;126327;-76
2023/09/05 01:04:00;;;;;;;;;;;;;;;20.30;85.58;101476.06;668203;1262;125134;-76
2023/09/05 01:19:03;;;;;;;;;;;;;;;19.93;86.70;101464.19;667962;1264;125685;-76
2023/09/05 01:34:06;;;;;;;;;;;;;;;19.62;87.66;101457.40;667892;1263;126674;-76
2023/09/05 01:49:10;;;;;;;;;;;;;;;19.45;87.25;101459.14;667797;1265;126349;-76
2023/09/05 02:04:13;;;;;;;;;;;;;;;19.07;88.28;101465.02;667902;1276;126303;-76
2023/09/05 02:19:16;;;;;;;;;;;;;;;18.71;88.53;101452.24;667988;1265;126122;-76
2023/09/05 02:34:19;;;;;;;;;;;;;;;18.72;88.79;101452.48;668070;1265;125731;-76
2023/09/05 02:49:22;;;;;;;;;;;;;;;18.65;88.84;101447.34;667843;1262;129561;-75
2023/09/05 03:04:26;;;;;;;;;;;;;;;18.35;89.37;101445.52;667866;1264;126155;-75
2023/09/05 03:19:30;;;;;;;;;;;;;;;17.92;90.27;101440.42;668505;1276;126346;-75
2023/09/05 03:34:34;;;;;;;;;;;;;;;17.85;91.13;101445.45;668172;1265;126552;-76
2023/09/05 03:49:38;;;;;;;;;;;;;;;17.88;91.95;101446.30;668389;1262;126158;-77
2023/09/05 04:04:41;;;;;;;;;;;;;;;17.86;92.18;101439.30;668502;1263;125119;-77
2023/09/05 04:19:44;;;;;;;;;;;;;;;17.97;92.41;101438.67;668173;1263;125696;-76
2023/09/05 04:34:47;;;;;;;;;;;;;;;18.15;93.78;101440.85;668233;1265;126026;-75
2023/09/05 04:49:52;;;;;;;;;;;;;;;18.22;93.14;101438.10;668956;1263;126374;-76
2023/09/05 05:04:55;;;;;;;;;;;;;;;18.34;92.51;101446.16;668039;1278;125043;-76
2023/09/05 05:19:58;;;;;;;;;;;;;;;18.54;93.81;101456.42;667950;1264;125406;-77
2023/09/05 05:35:02;;;;;;;;;;;;;;;18.90;95.01;101450.77;668217;1273;152015;-75
2023/09/05 05:50:06;;;;;;;;;;;;;;;20.06;94.13;101442.84;673785;1260;126894;-76
2023/09/05 06:05:09;;;;;;;;;;;;;;;25.02;81.28;101463.09;668162;1266;126076;-76
2023/09/05 06:20:13;;;;;;;;;;;;;;;27.23;69.22;101476.13;668351;1264;126467;-76
2023/09/05 06:35:17;;;;;;;;;;;;;;;27.46;64.00;101478.74;669412;1264;125391;-76
2023/09/05 06:50:20;;;;;;;;;;;;;;;27.49;62.82;101474.06;668397;1262;124296;-76
2023/09/05 07:05:24;;;;;;;;;;;;;;;25.19;67.49;101485.15;668280;1273;124302;-75
2023/09/05 07:20:27;;;;;;;;;;;;;;;24.14;71.93;101484.47;668159;1275;125977;-76
2023/09/05 07:35:31;;;;;;;;;;;;;;;25.70;70.53;101497.34;668338;1264;127772;-76
2023/09/05 07:50:35;;;;;;;;;;;;;;;27.16;67.77;101490.77;668507;1263;124206;-76
2023/09/05 08:05:38;;;;;;;;;;;;;;;27.92;65.75;101497.95;668052;1260;124747;-76
2023/09/05 08:20:43;;;;;;;;;;;;;;;29.26;63.56;101500.89;667845;1264;125928;-77
2023/09/05 08:35:46;;;;;;;;;;;;;;;29.20;62.48;101493.63;669581;1262;124717;-77
2023/09/05 08:50:50;;;;;;;;;;;;;;;29.37;63.62;101490.89;669928;1273;124940;-77
2023/09/05 09:05:53;;;;;;;;;;;;;;;30.21;61.43;101485.23;667968;1262;125784;-76
2023/09/05 09:21:01;;;;;;;;;;;;;;;29.79;61.02;101462.94;668270;1261;125539;-77
2023/09/05 09:36:04;;;;;;;;;;;;;;;29.96;60.95;101452.35;668308;1263;125410;-76
2023/09/05 09:51:08;;;;;;;;;;;;;;;29.89;61.16;101441.14;668266;1262;124785;-76
2023/09/05 10:06:12;;;;;;;;;;;;;;;29.46;61.64;101420.95;668365;1260;124640;-75
2023/09/05 10:21:16;;;;;;;;;;;;;;;29.10;61.80;101408.89;668429;1264;124764;-76
2023/09/05 10:36:39;;;;;;;;;;;;;;;29.90;61.18;101398.23;668389;1262;124498;-76
2023/09/05 10:52:01;;;;;;;;;;;;;;;30.36;60.66;101393.81;668264;1262;124900;-77
2023/09/05 11:07:05;;;;;;;;;;;;;;;31.12;58.58;101398.50;676002;1262;124018;-76
2023/09/05 11:22:19;;;;;;;;;;;;;;;30.31;59.94;101385.91;669318;1262;124718;-77
2023/09/05 11:37:22;;;;;;;;;;;;;;;29.88;60.74;101375.15;668820;1260;124426;-78
2023/09/05 11:52:27;;;;;;;;;;;;;;;30.13;60.82;101359.34;670941;1262;124577;-78
2023/09/05 12:07:30;;;;;;;;;;;;;;;30.18;60.65;101344.36;672824;1262;124447;-76
2023/09/05 12:22:34;;;;;;;;;;;;;;;29.40;62.73;101328.26;668795;1258;124655;-79
2023/09/05 12:37:37;;;;;;;;;;;;;;;28.70;64.69;101318.61;668739;1263;124565;-77
2023/09/05 12:52:42;;;;;;;;;;;;;;;28.25;65.60;101313.77;672873;1263;125116;-78
2023/09/05 13:07:45;;;;;;;;;;;;;;;28.44;65.66;101289.55;671315;1262;125049;-77
2023/09/05 13:22:50;;;;;;;;;;;;;;;29.15;64.33;101274.55;668411;1262;124472;-78
2023/09/05 13:37:53;;;;;;;;;;;;;;;29.54;62.44;101252.89;673547;1267;124844;-78
2023/09/05 13:52:56;;;;;;;;;;;;;;;29.55;63.45;101227.93;673095;1262;125188;-80
2023/09/05 14:08:03;;;;;;;;;;;;;;;29.36;63.56;101223.65;672710;1262;124900;-79
2023/09/05 14:23:06;;;;;;;;;;;;;;;29.20;63.61;101218.83;671745;1259;124624;-78
2023/09/05 14:38:09;;;;;;;;;;;;;;;29.08;64.16;101205.70;668813;1262;124730;-77
2023/09/05 14:53:13;;;;;;;;;;;;;;;29.18;63.39;101181.38;668750;1263;124627;-78
2023/09/05 15:08:16;;;;;;;;;;;;;;;28.85;64.57;101173.55;668736;1263;124995;-78
2023/09/05 15:23:19;;;;;;;;;;;;;;;28.70;65.03;101168.55;669105;1259;124497;-77
2023/09/05 15:38:23;;;;;;;;;;;;;;;28.34;65.85;101165.45;669785;1264;126119;-77
2023/09/05 15:53:26;;;;;;;;;;;;;;;28.34;66.56;101156.04;669472;1259;124272;-77
2023/09/05 16:08:30;;;;;;;;;;;;;;;27.74;67.72;101146.59;670531;1262;127396;-77
2023/09/05 16:23:33;;;;;;;;;;;;;;;27.66;68.30;101133.23;673586;1262;125472;-78
2023/09/05 16:38:37;;;;;;;;;;;;;;;27.50;69.28;101131.83;677465;1264;124572;-78
2023/09/05 16:53:41;;;;;;;;;;;;;;;27.20;70.36;101121.45;669090;1262;125427;-78
2023/09/05 17:08:45;;;;;;;;;;;;;;;26.62;71.36;101116.17;668352;1269;124865;-78
2023/09/05 17:23:50;;;;;;;;;;;;;;;25.87;72.63;101118.44;668534;1260;124516;-76
2023/09/05 17:38:53;;;;;;;;;;;;;;;25.05;74.29;101109.39;668646;1264;124980;-77
2023/09/05 17:53:57;;;;;;;;;;;;;;;24.45;76.11;101118.51;668789;1262;125232;-77
2023/09/05 18:09:01;;;;;;;;;;;;;;;23.81;78.18;101134.17;668316;1264;126975;-76
2023/09/05 18:24:04;;;;;;;;;;;;;;;23.31;80.31;101141.03;668589;1265;125291;-78
2023/09/05 18:39:08;;;;;;;;;;;;;;;22.66;82.06;101141.91;671155;1262;125785;-78
2023/09/05 18:54:12;;;;;;;;;;;;;;;22.31;83.27;101137.00;669450;1262;125220;-78
2023/09/05 19:09:19;;;;;;;;;;;;;;;22.15;84.63;101136.73;671514;1265;126060;-77
2023/09/05 19:24:26;;;;;;;;;;;;;;;21.92;86.51;101148.95;671198;1264;125604;-77
2023/09/05 19:39:30;;;;;;;;;;;;;;;21.62;87.36;101147.95;668582;1263;125588;-77
2023/09/05 19:54:33;;;;;;;;;;;;;;;21.36;88.26;101146.19;669103;1263;125713;-77
2023/09/05 20:09:37;;;;;;;;;;;;;;;21.06;89.40;101146.69;669500;1263;126384;-78
2023/09/05 20:24:42;;;;;;;;;;;;;;;20.66;90.50;101147.98;669056;1274;125022;-77
2023/09/05 20:39:46;;;;;;;;;;;;;;;20.35;92.49;101141.38;668628;1262;126668;-77
2023/09/05 20:54:49;;;;;;;;;;;;;;;20.18;93.17;101149.30;668418;1273;125574;-77
2023/09/05 21:09:53;;;;;;;;;;;;;;;19.98;93.83;101149.86;668561;1265;125810;-78
2023/09/05 21:24:57;;;;;;;;;;;;;;;19.85;95.07;101148.73;669058;1268;125235;-78
2023/09/05 21:40:04;;;;;;;;;;;;;;;19.53;96.39;101145.89;670921;1262;125297;-78
2023/09/05 21:55:07;;;;;;;;;;;;;;;19.34;97.57;101141.48;672021;1273;125674;-77
2023/09/05 22:10:10;;;;;;;;;;;;;;;19.44;97.48;101145.13;668330;1263;126879;-77
2023/09/05 22:25:14;;;;;;;;;;;;;;;19.57;96.05;101150.92;668724;1263;125611;-78
2023/09/05 22:40:17;;;;;;;;;;;;;;;19.30;96.52;101139.23;669516;1272;125760;-78
2023/09/05 22:55:22;;;;;;;;;;;;;;;19.08;96.90;101131.83;668739;1264;126959;-77
2023/09/05 23:10:25;;;;;;;;;;;;;;;19.01;97.20;101141.94;668792;1261;126885;-78
2023/09/05 23:25:29;;;;;;;;;;;;;;;18.76;97.95;101149.84;668279;1269;126974;-77
2023/09/05 23:40:32;;;;;;;;;;;;;;;18.50;97.23;101158.45;668658;1263;125817;-77
2023/09/05 23:55:35;;;;;;;;;;;;;;;18.48;97.65;101156.87;668125;1263;125654;-78
